sensor_id;sensor_type;location;lat;lon;timestamp;P1;durP1;ratioP1;P2;durP2;ratioP2
45368;SDS011;51342;55.250;37.668;2024-02-21T00:04:13;10.43;;;6.17;;
45368;SDS011;51342;55.250;37.668;2024-02-21T00:06:45;10.07;;;6.53;;
45368;SDS011;51342;55.250;37.668;2024-02-21T00:09:16;12.23;;;6.53;;
45368;SDS011;51342;55.250;37.668;2024-02-21T00:11:49;10.87;;;6.43;;
45368;SDS011;51342;55.250;37.668;2024-02-21T00:14:20;12.13;;;6.53;;
45368;SDS011;51342;55.250;37.668;2024-02-21T00:16:52;12.33;;;6.70;;
45368;SDS011;51342;55.250;37.668;2024-02-21T00:19:24;10.87;;;6.20;;
45368;SDS011;51342;55.250;37.668;2024-02-21T00:21:55;9.90;;;6.00;;
45368;SDS011;51342;55.250;37.668;2024-02-21T00:24:26;11.97;;;6.33;;
45368;SDS011;51342;55.250;37.668;2024-02-21T00:26:58;14.77;;;7.03;;
45368;SDS011;51342;55.250;37.668;2024-02-21T00:29:29;14.40;;;6.67;;
45368;SDS011;51342;55.250;37.668;2024-02-21T00:32:01;12.33;;;6.53;;
45368;SDS011;51342;55.250;37.668;2024-02-21T00:34:32;13.60;;;7.00;;
45368;SDS011;51342;55.250;37.668;2024-02-21T00:37:04;9.20;;;6.53;;
45368;SDS011;51342;55.250;37.668;2024-02-21T00:39:36;11.80;;;7.03;;
45368;SDS011;51342;55.250;37.668;2024-02-21T00:42:08;9.20;;;6.57;;
45368;SDS011;51342;55.250;37.668;2024-02-21T00:44:39;11.20;;;6.07;;
45368;SDS011;51342;55.250;37.668;2024-02-21T00:47:10;12.17;;;6.77;;
45368;SDS011;51342;55.250;37.668;2024-02-21T00:49:42;10.70;;;6.67;;
45368;SDS011;51342;55.250;37.668;2024-02-21T00:52:13;13.43;;;7.30;;
45368;SDS011;51342;55.250;37.668;2024-02-21T00:54:45;12.30;;;6.23;;
45368;SDS011;51342;55.250;37.668;2024-02-21T00:57:16;11.73;;;6.40;;
45368;SDS011;51342;55.250;37.668;2024-02-21T00:59:47;13.00;;;7.33;;
45368;SDS011;51342;55.250;37.668;2024-02-21T01:02:19;11.70;;;7.00;;
45368;SDS011;51342;55.250;37.668;2024-02-21T01:04:50;11.67;;;6.97;;
45368;SDS011;51342;55.250;37.668;2024-02-21T01:07:22;12.50;;;7.23;;
45368;SDS011;51342;55.250;37.668;2024-02-21T01:09:53;12.43;;;6.60;;
45368;SDS011;51342;55.250;37.668;2024-02-21T01:12:25;14.50;;;7.03;;
45368;SDS011;51342;55.250;37.668;2024-02-21T01:14:56;13.87;;;6.97;;
45368;SDS011;51342;55.250;37.668;2024-02-21T01:17:27;12.20;;;7.00;;
45368;SDS011;51342;55.250;37.668;2024-02-21T01:19:59;12.03;;;6.90;;
45368;SDS011;51342;55.250;37.668;2024-02-21T01:22:30;12.80;;;7.23;;
45368;SDS011;51342;55.250;37.668;2024-02-21T01:25:02;13.53;;;7.77;;
45368;SDS011;51342;55.250;37.668;2024-02-21T01:27:34;13.40;;;7.50;;
45368;SDS011;51342;55.250;37.668;2024-02-21T01:30:05;13.77;;;8.10;;
45368;SDS011;51342;55.250;37.668;2024-02-21T01:32:38;14.40;;;7.97;;
45368;SDS011;51342;55.250;37.668;2024-02-21T01:35:09;13.97;;;7.93;;
45368;SDS011;51342;55.250;37.668;2024-02-21T01:37:41;15.70;;;8.33;;
45368;SDS011;51342;55.250;37.668;2024-02-21T01:40:12;12.87;;;7.40;;
45368;SDS011;51342;55.250;37.668;2024-02-21T01:42:43;15.97;;;8.77;;
45368;SDS011;51342;55.250;37.668;2024-02-21T01:45:15;15.77;;;8.60;;
45368;SDS011;51342;55.250;37.668;2024-02-21T01:47:46;15.23;;;9.80;;
45368;SDS011;51342;55.250;37.668;2024-02-21T01:50:19;15.83;;;8.67;;
45368;SDS011;51342;55.250;37.668;2024-02-21T01:52:53;15.23;;;9.63;;
45368;SDS011;51342;55.250;37.668;2024-02-21T01:55:25;14.40;;;8.63;;
45368;SDS011;51342;55.250;37.668;2024-02-21T01:58:01;17.70;;;9.80;;
45368;SDS011;51342;55.250;37.668;2024-02-21T02:00:33;19.90;;;10.23;;
45368;SDS011;51342;55.250;37.668;2024-02-21T02:03:05;18.57;;;10.07;;
45368;SDS011;51342;55.250;37.668;2024-02-21T02:05:37;18.83;;;10.20;;
45368;SDS011;51342;55.250;37.668;2024-02-21T02:08:09;17.93;;;10.27;;
45368;SDS011;51342;55.250;37.668;2024-02-21T02:10:40;16.67;;;9.77;;
45368;SDS011;51342;55.250;37.668;2024-02-21T02:13:12;17.87;;;10.77;;
45368;SDS011;51342;55.250;37.668;2024-02-21T02:15:48;18.70;;;9.97;;
45368;SDS011;51342;55.250;37.668;2024-02-21T02:18:20;18.33;;;9.90;;
45368;SDS011;51342;55.250;37.668;2024-02-21T02:20:51;17.10;;;9.40;;
45368;SDS011;51342;55.250;37.668;2024-02-21T02:25:58;20.30;;;10.37;;
45368;SDS011;51342;55.250;37.668;2024-02-21T02:28:30;22.23;;;11.73;;
45368;SDS011;51342;55.250;37.668;2024-02-21T02:31:01;19.23;;;10.70;;
45368;SDS011;51342;55.250;37.668;2024-02-21T02:33:33;16.90;;;9.57;;
45368;SDS011;51342;55.250;37.668;2024-02-21T02:36:04;19.27;;;11.20;;
45368;SDS011;51342;55.250;37.668;2024-02-21T02:38:36;18.27;;;10.07;;
45368;SDS011;51342;55.250;37.668;2024-02-21T02:41:08;18.37;;;10.73;;
45368;SDS011;51342;55.250;37.668;2024-02-21T02:43:39;19.13;;;10.10;;
45368;SDS011;51342;55.250;37.668;2024-02-21T02:46:11;23.00;;;11.27;;
45368;SDS011;51342;55.250;37.668;2024-02-21T02:48:42;18.13;;;10.50;;
45368;SDS011;51342;55.250;37.668;2024-02-21T02:51:13;20.67;;;10.97;;
45368;SDS011;51342;55.250;37.668;2024-02-21T02:53:45;21.93;;;11.87;;
45368;SDS011;51342;55.250;37.668;2024-02-21T02:56:16;21.20;;;10.87;;
45368;SDS011;51342;55.250;37.668;2024-02-21T02:58:48;18.43;;;10.23;;
45368;SDS011;51342;55.250;37.668;2024-02-21T03:01:19;17.87;;;10.30;;
45368;SDS011;51342;55.250;37.668;2024-02-21T03:03:51;19.77;;;10.50;;
45368;SDS011;51342;55.250;37.668;2024-02-21T03:06:22;20.00;;;11.03;;
45368;SDS011;51342;55.250;37.668;2024-02-21T03:08:53;20.13;;;10.47;;
45368;SDS011;51342;55.250;37.668;2024-02-21T03:11:25;20.10;;;10.83;;
45368;SDS011;51342;55.250;37.668;2024-02-21T03:13:59;18.87;;;10.20;;
45368;SDS011;51342;55.250;37.668;2024-02-21T03:16:31;20.23;;;10.33;;
45368;SDS011;51342;55.250;37.668;2024-02-21T03:19:02;19.27;;;10.80;;
45368;SDS011;51342;55.250;37.668;2024-02-21T03:21:34;22.37;;;10.17;;
45368;SDS011;51342;55.250;37.668;2024-02-21T03:24:05;16.30;;;9.37;;
45368;SDS011;51342;55.250;37.668;2024-02-21T03:26:37;19.53;;;10.50;;
45368;SDS011;51342;55.250;37.668;2024-02-21T03:29:09;18.33;;;11.60;;
45368;SDS011;51342;55.250;37.668;2024-02-21T03:31:41;17.20;;;10.30;;
45368;SDS011;51342;55.250;37.668;2024-02-21T03:34:13;20.83;;;10.90;;
45368;SDS011;51342;55.250;37.668;2024-02-21T03:36:45;20.93;;;10.60;;
45368;SDS011;51342;55.250;37.668;2024-02-21T03:39:16;21.00;;;11.07;;
45368;SDS011;51342;55.250;37.668;2024-02-21T03:41:48;19.00;;;10.63;;
45368;SDS011;51342;55.250;37.668;2024-02-21T03:44:19;18.93;;;10.93;;
45368;SDS011;51342;55.250;37.668;2024-02-21T03:46:50;19.80;;;11.10;;
45368;SDS011;51342;55.250;37.668;2024-02-21T03:49:22;17.00;;;10.23;;
45368;SDS011;51342;55.250;37.668;2024-02-21T03:51:53;21.30;;;10.13;;
45368;SDS011;51342;55.250;37.668;2024-02-21T03:54:25;21.67;;;10.47;;
45368;SDS011;51342;55.250;37.668;2024-02-21T03:56:56;18.73;;;10.93;;
45368;SDS011;51342;55.250;37.668;2024-02-21T03:59:28;20.93;;;10.80;;
45368;SDS011;51342;55.250;37.668;2024-02-21T04:01:59;19.70;;;10.77;;
45368;SDS011;51342;55.250;37.668;2024-02-21T04:04:31;17.23;;;11.10;;
45368;SDS011;51342;55.250;37.668;2024-02-21T04:07:03;19.43;;;10.57;;
45368;SDS011;51342;55.250;37.668;2024-02-21T04:09:37;20.50;;;11.07;;
45368;SDS011;51342;55.250;37.668;2024-02-21T04:12:09;20.83;;;11.10;;
45368;SDS011;51342;55.250;37.668;2024-02-21T04:14:40;20.67;;;11.63;;
45368;SDS011;51342;55.250;37.668;2024-02-21T04:17:12;18.23;;;10.47;;
45368;SDS011;51342;55.250;37.668;2024-02-21T04:19:43;23.93;;;12.30;;
45368;SDS011;51342;55.250;37.668;2024-02-21T04:22:15;20.03;;;10.90;;
45368;SDS011;51342;55.250;37.668;2024-02-21T04:24:46;21.23;;;10.97;;
45368;SDS011;51342;55.250;37.668;2024-02-21T04:27:17;25.27;;;10.87;;
45368;SDS011;51342;55.250;37.668;2024-02-21T04:29:49;19.77;;;10.73;;
45368;SDS011;51342;55.250;37.668;2024-02-21T04:32:20;20.70;;;11.70;;
45368;SDS011;51342;55.250;37.668;2024-02-21T04:34:52;18.13;;;10.70;;
45368;SDS011;51342;55.250;37.668;2024-02-21T04:37:23;20.77;;;10.90;;
45368;SDS011;51342;55.250;37.668;2024-02-21T04:39:55;21.43;;;11.30;;
45368;SDS011;51342;55.250;37.668;2024-02-21T04:42:26;19.67;;;10.67;;
45368;SDS011;51342;55.250;37.668;2024-02-21T04:44:58;20.53;;;11.27;;
45368;SDS011;51342;55.250;37.668;2024-02-21T04:47:29;21.40;;;11.77;;
45368;SDS011;51342;55.250;37.668;2024-02-21T04:50:01;19.13;;;11.37;;
45368;SDS011;51342;55.250;37.668;2024-02-21T04:52:32;20.77;;;11.87;;
45368;SDS011;51342;55.250;37.668;2024-02-21T04:55:04;20.83;;;11.90;;
45368;SDS011;51342;55.250;37.668;2024-02-21T04:57:36;21.43;;;11.60;;
45368;SDS011;51342;55.250;37.668;2024-02-21T05:00:08;18.97;;;10.83;;
45368;SDS011;51342;55.250;37.668;2024-02-21T05:02:40;19.27;;;10.97;;
45368;SDS011;51342;55.250;37.668;2024-02-21T05:05:11;20.57;;;11.10;;
45368;SDS011;51342;55.250;37.668;2024-02-21T05:07:45;18.33;;;11.47;;
45368;SDS011;51342;55.250;37.668;2024-02-21T05:10:16;21.03;;;12.47;;
45368;SDS011;51342;55.250;37.668;2024-02-21T05:12:49;18.60;;;11.17;;
45368;SDS011;51342;55.250;37.668;2024-02-21T05:15:20;21.60;;;12.07;;
45368;SDS011;51342;55.250;37.668;2024-02-21T05:17:52;21.17;;;11.87;;
45368;SDS011;51342;55.250;37.668;2024-02-21T05:20:23;18.57;;;11.23;;
45368;SDS011;51342;55.250;37.668;2024-02-21T05:22:55;20.17;;;11.93;;
45368;SDS011;51342;55.250;37.668;2024-02-21T05:25:26;22.73;;;11.90;;
45368;SDS011;51342;55.250;37.668;2024-02-21T05:27:58;20.17;;;10.87;;
45368;SDS011;51342;55.250;37.668;2024-02-21T05:30:33;19.13;;;10.97;;
45368;SDS011;51342;55.250;37.668;2024-02-21T05:33:05;20.70;;;11.63;;
45368;SDS011;51342;55.250;37.668;2024-02-21T05:35:37;19.60;;;11.30;;
45368;SDS011;51342;55.250;37.668;2024-02-21T05:38:08;19.97;;;11.33;;
45368;SDS011;51342;55.250;37.668;2024-02-21T05:40:42;21.53;;;11.97;;
45368;SDS011;51342;55.250;37.668;2024-02-21T05:43:15;20.87;;;12.27;;
45368;SDS011;51342;55.250;37.668;2024-02-21T05:45:46;20.23;;;10.60;;
45368;SDS011;51342;55.250;37.668;2024-02-21T05:48:19;21.47;;;11.20;;
45368;SDS011;51342;55.250;37.668;2024-02-21T05:50:51;19.23;;;11.70;;
45368;SDS011;51342;55.250;37.668;2024-02-21T05:53:22;22.83;;;11.03;;
45368;SDS011;51342;55.250;37.668;2024-02-21T05:55:54;22.50;;;11.47;;
45368;SDS011;51342;55.250;37.668;2024-02-21T05:58:25;26.73;;;12.77;;
45368;SDS011;51342;55.250;37.668;2024-02-21T06:00:57;20.37;;;11.70;;
45368;SDS011;51342;55.250;37.668;2024-02-21T06:03:29;20.40;;;10.30;;
45368;SDS011;51342;55.250;37.668;2024-02-21T06:06:00;21.67;;;11.07;;
45368;SDS011;51342;55.250;37.668;2024-02-21T06:08:32;20.80;;;11.53;;
45368;SDS011;51342;55.250;37.668;2024-02-21T06:11:03;19.27;;;11.70;;
45368;SDS011;51342;55.250;37.668;2024-02-21T06:13:37;19.50;;;10.93;;
45368;SDS011;51342;55.250;37.668;2024-02-21T06:16:10;22.93;;;11.47;;
45368;SDS011;51342;55.250;37.668;2024-02-21T06:18:42;22.43;;;11.37;;
45368;SDS011;51342;55.250;37.668;2024-02-21T06:21:13;22.73;;;11.80;;
45368;SDS011;51342;55.250;37.668;2024-02-21T06:23:44;18.83;;;11.03;;
45368;SDS011;51342;55.250;37.668;2024-02-21T06:26:16;18.37;;;11.23;;
45368;SDS011;51342;55.250;37.668;2024-02-21T06:28:48;17.83;;;10.47;;
45368;SDS011;51342;55.250;37.668;2024-02-21T06:31:19;20.00;;;11.10;;
45368;SDS011;51342;55.250;37.668;2024-02-21T06:33:51;18.90;;;11.03;;
45368;SDS011;51342;55.250;37.668;2024-02-21T06:36:22;20.07;;;11.20;;
45368;SDS011;51342;55.250;37.668;2024-02-21T06:38:54;17.37;;;10.17;;
45368;SDS011;51342;55.250;37.668;2024-02-21T06:41:25;19.37;;;10.37;;
45368;SDS011;51342;55.250;37.668;2024-02-21T06:43:56;20.83;;;12.07;;
45368;SDS011;51342;55.250;37.668;2024-02-21T06:46:28;20.47;;;10.53;;
45368;SDS011;51342;55.250;37.668;2024-02-21T06:49:01;18.17;;;10.27;;
45368;SDS011;51342;55.250;37.668;2024-02-21T06:51:34;19.30;;;11.13;;
45368;SDS011;51342;55.250;37.668;2024-02-21T06:54:07;19.20;;;10.83;;
45368;SDS011;51342;55.250;37.668;2024-02-21T06:56:40;18.93;;;10.10;;
45368;SDS011;51342;55.250;37.668;2024-02-21T06:59:11;16.40;;;10.53;;
45368;SDS011;51342;55.250;37.668;2024-02-21T07:01:51;19.83;;;11.80;;
45368;SDS011;51342;55.250;37.668;2024-02-21T07:04:24;19.20;;;10.70;;
45368;SDS011;51342;55.250;37.668;2024-02-21T07:06:55;17.50;;;10.13;;
45368;SDS011;51342;55.250;37.668;2024-02-21T07:09:27;18.77;;;10.13;;
45368;SDS011;51342;55.250;37.668;2024-02-21T07:11:59;19.60;;;10.73;;
45368;SDS011;51342;55.250;37.668;2024-02-21T07:14:35;19.03;;;10.80;;
45368;SDS011;51342;55.250;37.668;2024-02-21T07:17:07;15.90;;;9.50;;
45368;SDS011;51342;55.250;37.668;2024-02-21T07:19:38;19.87;;;10.27;;
45368;SDS011;51342;55.250;37.668;2024-02-21T07:25:43;17.30;;;9.57;;
45368;SDS011;51342;55.250;37.668;2024-02-21T07:28:39;17.43;;;9.50;;
45368;SDS011;51342;55.250;37.668;2024-02-21T07:31:29;15.90;;;9.43;;
45368;SDS011;51342;55.250;37.668;2024-02-21T07:34:00;19.07;;;10.73;;
45368;SDS011;51342;55.250;37.668;2024-02-21T07:36:50;22.67;;;10.77;;
45368;SDS011;51342;55.250;37.668;2024-02-21T07:39:40;15.77;;;8.83;;
45368;SDS011;51342;55.250;37.668;2024-02-21T07:42:17;17.07;;;10.07;;
45368;SDS011;51342;55.250;37.668;2024-02-21T07:45:18;18.83;;;10.37;;
45368;SDS011;51342;55.250;37.668;2024-02-21T07:48:02;18.03;;;10.20;;
45368;SDS011;51342;55.250;37.668;2024-02-21T07:53:16;15.93;;;9.32;;
45368;SDS011;51342;55.250;37.668;2024-02-21T07:56:00;19.40;;;9.97;;
45368;SDS011;51342;55.250;37.668;2024-02-21T07:59:01;16.23;;;8.90;;
45368;SDS011;51342;55.250;37.668;2024-02-21T08:05:05;16.33;;;8.73;;
45368;SDS011;51342;55.250;37.668;2024-02-21T08:07:48;16.60;;;9.40;;
45368;SDS011;51342;55.250;37.668;2024-02-21T08:10:56;17.37;;;9.93;;
45368;SDS011;51342;55.250;37.668;2024-02-21T08:17:05;18.67;;;9.63;;
45368;SDS011;51342;55.250;37.668;2024-02-21T08:20:18;17.60;;;10.30;;
45368;SDS011;51342;55.250;37.668;2024-02-21T08:23:18;18.93;;;9.40;;
45368;SDS011;51342;55.250;37.668;2024-02-21T08:26:08;15.83;;;8.93;;
45368;SDS011;51342;55.250;37.668;2024-02-21T08:28:51;15.93;;;9.27;;
45368;SDS011;51342;55.250;37.668;2024-02-21T08:31:23;16.33;;;9.13;;
45368;SDS011;51342;55.250;37.668;2024-02-21T08:33:55;15.03;;;8.67;;
45368;SDS011;51342;55.250;37.668;2024-02-21T08:36:36;14.93;;;9.17;;
45368;SDS011;51342;55.250;37.668;2024-02-21T08:39:13;16.30;;;9.83;;
45368;SDS011;51342;55.250;37.668;2024-02-21T08:41:47;16.17;;;9.50;;
45368;SDS011;51342;55.250;37.668;2024-02-21T08:44:18;17.00;;;10.20;;
45368;SDS011;51342;55.250;37.668;2024-02-21T08:46:50;18.23;;;9.80;;
45368;SDS011;51342;55.250;37.668;2024-02-21T08:49:21;15.53;;;9.20;;
45368;SDS011;51342;55.250;37.668;2024-02-21T08:51:53;16.37;;;10.03;;
45368;SDS011;51342;55.250;37.668;2024-02-21T08:54:25;14.13;;;8.80;;
45368;SDS011;51342;55.250;37.668;2024-02-21T08:56:56;16.77;;;9.17;;
45368;SDS011;51342;55.250;37.668;2024-02-21T08:59:28;17.83;;;10.20;;
45368;SDS011;51342;55.250;37.668;2024-02-21T09:02:05;17.73;;;10.30;;
45368;SDS011;51342;55.250;37.668;2024-02-21T09:04:43;20.08;;;10.60;;
45368;SDS011;51342;55.250;37.668;2024-02-21T09:07:17;15.83;;;9.17;;
45368;SDS011;51342;55.250;37.668;2024-02-21T09:10:00;15.03;;;9.10;;
45368;SDS011;51342;55.250;37.668;2024-02-21T09:12:31;15.03;;;8.97;;
45368;SDS011;51342;55.250;37.668;2024-02-21T09:15:03;13.77;;;8.17;;
45368;SDS011;51342;55.250;37.668;2024-02-21T09:17:35;16.30;;;8.83;;
45368;SDS011;51342;55.250;37.668;2024-02-21T09:20:07;15.23;;;9.80;;
45368;SDS011;51342;55.250;37.668;2024-02-21T09:22:53;15.03;;;9.40;;
45368;SDS011;51342;55.250;37.668;2024-02-21T09:25:24;17.42;;;9.93;;
45368;SDS011;51342;55.250;37.668;2024-02-21T09:27:55;17.20;;;9.30;;
45368;SDS011;51342;55.250;37.668;2024-02-21T09:30:29;16.70;;;10.03;;
45368;SDS011;51342;55.250;37.668;2024-02-21T09:33:01;16.53;;;9.30;;
45368;SDS011;51342;55.250;37.668;2024-02-21T09:35:33;15.70;;;9.20;;
45368;SDS011;51342;55.250;37.668;2024-02-21T09:38:04;13.07;;;8.60;;
45368;SDS011;51342;55.250;37.668;2024-02-21T09:40:37;14.10;;;8.33;;
45368;SDS011;51342;55.250;37.668;2024-02-21T09:43:26;15.20;;;8.33;;
45368;SDS011;51342;55.250;37.668;2024-02-21T09:45:58;15.83;;;9.47;;
45368;SDS011;51342;55.250;37.668;2024-02-21T09:51:45;16.73;;;8.40;;
45368;SDS011;51342;55.250;37.668;2024-02-21T09:54:21;16.77;;;9.20;;
45368;SDS011;51342;55.250;37.668;2024-02-21T09:56:53;16.07;;;10.13;;
45368;SDS011;51342;55.250;37.668;2024-02-21T09:59:24;16.27;;;10.37;;
45368;SDS011;51342;55.250;37.668;2024-02-21T10:01:57;13.87;;;8.63;;
45368;SDS011;51342;55.250;37.668;2024-02-21T10:04:31;16.47;;;9.60;;
45368;SDS011;51342;55.250;37.668;2024-02-21T10:07:03;15.23;;;9.47;;
45368;SDS011;51342;55.250;37.668;2024-02-21T10:09:35;15.10;;;8.63;;
45368;SDS011;51342;55.250;37.668;2024-02-21T10:12:10;15.20;;;9.40;;
45368;SDS011;51342;55.250;37.668;2024-02-21T10:14:43;16.53;;;9.17;;
45368;SDS011;51342;55.250;37.668;2024-02-21T10:17:20;13.68;;;9.02;;
45368;SDS011;51342;55.250;37.668;2024-02-21T10:19:52;13.87;;;8.73;;
45368;SDS011;51342;55.250;37.668;2024-02-21T10:22:29;13.40;;;9.07;;
45368;SDS011;51342;55.250;37.668;2024-02-21T10:25:11;14.50;;;8.13;;
45368;SDS011;51342;55.250;37.668;2024-02-21T10:27:43;13.83;;;8.90;;
45368;SDS011;51342;55.250;37.668;2024-02-21T10:30:15;17.20;;;9.27;;
45368;SDS011;51342;55.250;37.668;2024-02-21T10:32:50;13.60;;;8.50;;
45368;SDS011;51342;55.250;37.668;2024-02-21T10:35:26;18.63;;;9.87;;
45368;SDS011;51342;55.250;37.668;2024-02-21T10:37:59;14.93;;;10.07;;
45368;SDS011;51342;55.250;37.668;2024-02-21T10:40:31;18.60;;;9.17;;
45368;SDS011;51342;55.250;37.668;2024-02-21T10:43:02;14.00;;;8.27;;
45368;SDS011;51342;55.250;37.668;2024-02-21T10:45:36;15.27;;;9.37;;
45368;SDS011;51342;55.250;37.668;2024-02-21T10:48:09;16.40;;;9.20;;
45368;SDS011;51342;55.250;37.668;2024-02-21T10:50:47;14.50;;;9.40;;
45368;SDS011;51342;55.250;37.668;2024-02-21T10:56:49;15.63;;;9.40;;
45368;SDS011;51342;55.250;37.668;2024-02-21T10:59:21;13.93;;;8.97;;
45368;SDS011;51342;55.250;37.668;2024-02-21T11:01:54;13.80;;;8.80;;
45368;SDS011;51342;55.250;37.668;2024-02-21T11:04:25;16.17;;;10.10;;
45368;SDS011;51342;55.250;37.668;2024-02-21T11:06:59;15.23;;;9.13;;
45368;SDS011;51342;55.250;37.668;2024-02-21T11:09:32;16.43;;;9.87;;
45368;SDS011;51342;55.250;37.668;2024-02-21T11:12:05;18.13;;;10.20;;
45368;SDS011;51342;55.250;37.668;2024-02-21T11:14:37;20.10;;;10.50;;
45368;SDS011;51342;55.250;37.668;2024-02-21T11:17:20;16.87;;;10.60;;
45368;SDS011;51342;55.250;37.668;2024-02-21T11:19:57;19.25;;;11.70;;
45368;SDS011;51342;55.250;37.668;2024-02-21T11:22:30;18.47;;;11.50;;
45368;SDS011;51342;55.250;37.668;2024-02-21T11:25:12;18.37;;;10.60;;
45368;SDS011;51342;55.250;37.668;2024-02-21T11:27:46;19.70;;;11.30;;
45368;SDS011;51342;55.250;37.668;2024-02-21T11:30:18;15.97;;;10.03;;
45368;SDS011;51342;55.250;37.668;2024-02-21T11:33:05;18.23;;;9.57;;
45368;SDS011;51342;55.250;37.668;2024-02-21T11:35:37;20.93;;;10.70;;
45368;SDS011;51342;55.250;37.668;2024-02-21T11:38:10;16.60;;;10.20;;
45368;SDS011;51342;55.250;37.668;2024-02-21T11:40:47;20.23;;;9.83;;
45368;SDS011;51342;55.250;37.668;2024-02-21T11:43:19;17.97;;;10.03;;
45368;SDS011;51342;55.250;37.668;2024-02-21T11:45:58;18.27;;;9.57;;
45368;SDS011;51342;55.250;37.668;2024-02-21T11:48:34;16.67;;;10.40;;
45368;SDS011;51342;55.250;37.668;2024-02-21T11:51:06;15.43;;;9.00;;
45368;SDS011;51342;55.250;37.668;2024-02-21T11:53:37;17.37;;;9.93;;
45368;SDS011;51342;55.250;37.668;2024-02-21T11:56:09;16.60;;;9.73;;
45368;SDS011;51342;55.250;37.668;2024-02-21T11:58:40;18.40;;;10.80;;
45368;SDS011;51342;55.250;37.668;2024-02-21T12:01:12;17.77;;;10.40;;
45368;SDS011;51342;55.250;37.668;2024-02-21T12:03:44;16.10;;;10.07;;
45368;SDS011;51342;55.250;37.668;2024-02-21T12:06:20;16.20;;;10.07;;
45368;SDS011;51342;55.250;37.668;2024-02-21T12:08:57;16.97;;;10.07;;
45368;SDS011;51342;55.250;37.668;2024-02-21T12:11:29;15.40;;;9.13;;
45368;SDS011;51342;55.250;37.668;2024-02-21T12:14:19;16.37;;;9.90;;
45368;SDS011;51342;55.250;37.668;2024-02-21T12:16:56;16.67;;;10.03;;
45368;SDS011;51342;55.250;37.668;2024-02-21T12:19:32;15.63;;;9.20;;
45368;SDS011;51342;55.250;37.668;2024-02-21T12:22:04;18.53;;;9.90;;
45368;SDS011;51342;55.250;37.668;2024-02-21T12:24:36;18.87;;;10.40;;
45368;SDS011;51342;55.250;37.668;2024-02-21T12:27:09;17.33;;;9.80;;
45368;SDS011;51342;55.250;37.668;2024-02-21T12:29:41;16.90;;;9.80;;
45368;SDS011;51342;55.250;37.668;2024-02-21T12:32:12;15.87;;;9.37;;
45368;SDS011;51342;55.250;37.668;2024-02-21T12:34:55;16.93;;;9.60;;
45368;SDS011;51342;55.250;37.668;2024-02-21T12:37:33;16.23;;;9.38;;
45368;SDS011;51342;55.250;37.668;2024-02-21T12:40:05;16.27;;;9.50;;
45368;SDS011;51342;55.250;37.668;2024-02-21T12:42:37;18.57;;;10.07;;
45368;SDS011;51342;55.250;37.668;2024-02-21T12:45:33;14.97;;;8.90;;
45368;SDS011;51342;55.250;37.668;2024-02-21T12:48:41;15.80;;;8.80;;
45368;SDS011;51342;55.250;37.668;2024-02-21T12:51:13;16.37;;;9.07;;
45368;SDS011;51342;55.250;37.668;2024-02-21T12:54:08;16.17;;;9.53;;
45368;SDS011;51342;55.250;37.668;2024-02-21T12:56:52;16.07;;;9.20;;
45368;SDS011;51342;55.250;37.668;2024-02-21T12:59:29;15.27;;;8.83;;
45368;SDS011;51342;55.250;37.668;2024-02-21T13:05:17;16.83;;;9.37;;
45368;SDS011;51342;55.250;37.668;2024-02-21T13:07:48;15.93;;;8.43;;
45368;SDS011;51342;55.250;37.668;2024-02-21T13:10:26;16.47;;;9.67;;
45368;SDS011;51342;55.250;37.668;2024-02-21T13:13:13;15.13;;;9.57;;
45368;SDS011;51342;55.250;37.668;2024-02-21T13:15:44;16.17;;;9.27;;
45368;SDS011;51342;55.250;37.668;2024-02-21T13:18:15;16.80;;;9.33;;
45368;SDS011;51342;55.250;37.668;2024-02-21T13:20:47;16.37;;;9.43;;
45368;SDS011;51342;55.250;37.668;2024-02-21T13:23:19;17.10;;;10.07;;
45368;SDS011;51342;55.250;37.668;2024-02-21T13:25:52;16.90;;;9.67;;
45368;SDS011;51342;55.250;37.668;2024-02-21T13:28:23;14.57;;;8.97;;
45368;SDS011;51342;55.250;37.668;2024-02-21T13:30:55;14.73;;;8.20;;
45368;SDS011;51342;55.250;37.668;2024-02-21T13:33:26;16.60;;;9.23;;
45368;SDS011;51342;55.250;37.668;2024-02-21T13:35:59;17.07;;;9.70;;
45368;SDS011;51342;55.250;37.668;2024-02-21T13:38:32;17.40;;;10.13;;
45368;SDS011;51342;55.250;37.668;2024-02-21T13:41:05;14.73;;;8.63;;
45368;SDS011;51342;55.250;37.668;2024-02-21T13:43:37;14.83;;;8.97;;
45368;SDS011;51342;55.250;37.668;2024-02-21T13:46:09;15.90;;;8.70;;
45368;SDS011;51342;55.250;37.668;2024-02-21T13:48:42;17.83;;;8.67;;
45368;SDS011;51342;55.250;37.668;2024-02-21T13:51:13;15.70;;;8.23;;
45368;SDS011;51342;55.250;37.668;2024-02-21T13:53:45;16.43;;;9.07;;
45368;SDS011;51342;55.250;37.668;2024-02-21T13:56:16;13.63;;;8.20;;
45368;SDS011;51342;55.250;37.668;2024-02-21T13:58:48;14.50;;;8.97;;
45368;SDS011;51342;55.250;37.668;2024-02-21T14:01:26;15.37;;;9.30;;
45368;SDS011;51342;55.250;37.668;2024-02-21T14:04:03;16.13;;;9.43;;
45368;SDS011;51342;55.250;37.668;2024-02-21T14:06:35;13.40;;;8.87;;
45368;SDS011;51342;55.250;37.668;2024-02-21T14:09:20;17.33;;;9.93;;
45368;SDS011;51342;55.250;37.668;2024-02-21T14:12:34;15.53;;;9.17;;
45368;SDS011;51342;55.250;37.668;2024-02-21T14:15:23;17.77;;;9.13;;
45368;SDS011;51342;55.250;37.668;2024-02-21T14:18:01;13.07;;;8.10;;
45368;SDS011;51342;55.250;37.668;2024-02-21T14:21:04;14.77;;;8.73;;
45368;SDS011;51342;55.250;37.668;2024-02-21T14:24:31;17.03;;;8.63;;
45368;SDS011;51342;55.250;37.668;2024-02-21T14:27:14;16.67;;;8.53;;
45368;SDS011;51342;55.250;37.668;2024-02-21T14:29:51;15.63;;;9.67;;
45368;SDS011;51342;55.250;37.668;2024-02-21T14:32:22;18.10;;;9.17;;
45368;SDS011;51342;55.250;37.668;2024-02-21T14:34:54;15.33;;;8.67;;
45368;SDS011;51342;55.250;37.668;2024-02-21T14:37:25;20.20;;;10.63;;
45368;SDS011;51342;55.250;37.668;2024-02-21T14:39:57;16.70;;;9.93;;
45368;SDS011;51342;55.250;37.668;2024-02-21T14:42:28;19.70;;;9.40;;
45368;SDS011;51342;55.250;37.668;2024-02-21T14:45:00;16.47;;;9.90;;
45368;SDS011;51342;55.250;37.668;2024-02-21T14:47:34;15.67;;;9.20;;
45368;SDS011;51342;55.250;37.668;2024-02-21T14:50:18;15.55;;;8.77;;
45368;SDS011;51342;55.250;37.668;2024-02-21T14:52:49;18.93;;;10.57;;
45368;SDS011;51342;55.250;37.668;2024-02-21T14:55:21;20.23;;;10.57;;
45368;SDS011;51342;55.250;37.668;2024-02-21T14:57:59;18.67;;;9.50;;
45368;SDS011;51342;55.250;37.668;2024-02-21T15:00:38;14.97;;;9.40;;
45368;SDS011;51342;55.250;37.668;2024-02-21T15:03:09;15.43;;;8.83;;
45368;SDS011;51342;55.250;37.668;2024-02-21T15:05:46;18.03;;;9.20;;
45368;SDS011;51342;55.250;37.668;2024-02-21T15:08:18;19.93;;;10.50;;
45368;SDS011;51342;55.250;37.668;2024-02-21T15:10:50;14.57;;;8.63;;
45368;SDS011;51342;55.250;37.668;2024-02-21T15:13:21;15.97;;;9.37;;
45368;SDS011;51342;55.250;37.668;2024-02-21T15:15:53;18.63;;;10.07;;
45368;SDS011;51342;55.250;37.668;2024-02-21T15:18:25;20.70;;;11.37;;
45368;SDS011;51342;55.250;37.668;2024-02-21T15:20:56;17.87;;;10.60;;
45368;SDS011;51342;55.250;37.668;2024-02-21T15:23:44;19.73;;;8.90;;
45368;SDS011;51342;55.250;37.668;2024-02-21T15:26:28;19.98;;;10.43;;